Time;durP1;ratioP1;P1;durP2;ratioP2;P2;SDS_P1;SDS_P2;PMS_P1;PMS_P2;Temp;Humidity;BMP_temperature;BMP_pressure;BME280_temperature;BME280_humidity;BME280_pressure;Samples;Min_cycle;Max_cycle;Signal;HPM_P1;HPM_P2
2023/07/06 00:00:16;;;;;;;3.53;1.30;;;14.30;99.90;;;;;;5116608;28;20027;-74
2023/07/06 00:02:42;;;;;;;3.95;1.63;;;14.20;99.90;;;;;;5116657;28;20035;-74
2023/07/06 00:05:09;;;;;;;2.28;1.40;;;14.20;99.90;;;;;;5116920;28;20019;-74
2023/07/06 00:07:35;;;;;;;3.47;1.70;;;14.10;99.90;;;;;;5116676;28;20102;-74
2023/07/06 00:10:04;;;;;;;3.38;1.60;;;14.10;99.90;;;;;;5116438;28;20024;-74
2023/07/06 00:12:30;;;;;;;2.92;1.63;;;14.00;99.90;;;;;;5116665;28;20031;-74
2023/07/06 00:14:56;;;;;;;2.83;1.30;;;14.00;99.90;;;;;;5116533;28;20027;-74
2023/07/06 00:17:22;;;;;;;2.40;1.55;;;13.90;99.90;;;;;;5116500;28;20055;-74
2023/07/06 00:19:48;;;;;;;5.65;2.85;;;13.90;99.90;;;;;;5098075;28;20100;-74
2023/07/06 00:22:14;;;;;;;3.20;1.73;;;13.80;99.90;;;;;;5116559;28;20031;-74
2023/07/06 00:24:42;;;;;;;2.95;1.65;;;13.80;99.90;;;;;;5098388;28;20024;-74
2023/07/06 00:27:08;;;;;;;4.28;1.90;;;13.80;99.90;;;;;;5116696;28;20101;-74
2023/07/06 00:29:35;;;;;;;4.82;2.03;;;13.80;99.90;;;;;;5117676;28;20488;-73
2023/07/06 00:32:15;;;;;;;4.45;2.10;;;13.80;99.90;;;;;;5116344;28;20118;-73
2023/07/06 00:34:43;;;;;;;2.17;1.23;;;13.80;99.90;;;;;;5116464;28;20023;-73
2023/07/06 00:37:10;;;;;;;2.65;1.30;;;13.90;99.90;;;;;;5116509;28;20110;-73
2023/07/06 00:39:36;;;;;;;3.25;1.38;;;13.90;99.90;;;;;;5098194;28;20495;-74
2023/07/06 00:42:05;;;;;;;3.72;1.33;;;13.90;99.90;;;;;;5115915;28;20064;-74
2023/07/06 00:44:54;;;;;;;2.60;1.30;;;13.90;99.90;;;;;;5116217;28;20028;-74
2023/07/06 00:47:35;;;;;;;2.75;1.48;;;13.90;99.90;;;;;;5115781;28;20024;-74
2023/07/06 00:50:12;;;;;;;3.00;1.50;;;13.90;99.90;;;;;;5116095;28;20027;-74
2023/07/06 00:52:44;;;;;;;2.53;1.33;;;13.90;99.90;;;;;;5115671;28;20085;-74
2023/07/06 00:55:12;;;;;;;2.40;1.33;;;13.90;99.90;;;;;;5115812;28;20051;-74
2023/07/06 00:57:40;;;;;;;2.47;1.40;;;13.90;99.90;;;;;;5115453;28;20020;-74
2023/07/06 01:00:07;;;;;;;2.80;1.38;;;14.00;99.90;;;;;;5115766;28;20041;-74
2023/07/06 01:02:38;;;;;;;2.47;1.42;;;14.00;99.90;;;;;;5115590;28;20027;-74
2023/07/06 01:05:07;;;;;;;2.35;1.17;;;13.90;99.90;;;;;;5115462;28;20488;-74
2023/07/06 01:07:35;;;;;;;2.45;1.33;;;13.90;99.90;;;;;;5115411;28;20032;-74
2023/07/06 01:10:01;;;;;;;3.00;1.80;;;13.80;99.90;;;;;;5115323;28;20070;-74
2023/07/06 01:12:27;;;;;;;3.90;1.50;;;13.80;99.90;;;;;;5115264;28;20066;-74
2023/07/06 01:14:53;;;;;;;2.30;1.45;;;13.80;99.90;;;;;;5115247;28;20036;-74
2023/07/06 01:17:27;;;;;;;2.63;1.48;;;13.80;99.90;;;;;;5115161;28;20154;-74
2023/07/06 01:20:04;;;;;;;3.13;1.25;;;13.80;99.90;;;;;;5115466;28;20035;-74
2023/07/06 01:22:52;;;;;;;2.63;1.30;;;13.80;99.90;;;;;;5115087;28;20122;-74
2023/07/06 01:25:36;;;;;;;3.88;1.55;;;13.70;99.90;;;;;;5115251;28;20049;-74
2023/07/06 01:28:23;;;;;;;2.53;1.33;;;13.80;99.90;;;;;;5115411;28;20032;-74
2023/07/06 01:31:16;;;;;;;2.40;1.27;;;13.70;99.90;;;;;;5114995;28;20461;-74
2023/07/06 01:33:52;;;;;;;3.25;1.60;;;13.70;99.90;;;;;;5114908;28;20024;-74
2023/07/06 01:36:44;;;;;;;2.83;1.50;;;13.60;99.90;;;;;;5115066;28;20493;-74
2023/07/06 01:39:12;;;;;;;2.67;1.50;;;13.50;99.90;;;;;;5110684;28;20047;-74
2023/07/06 01:41:40;;;;;;;3.63;1.40;;;13.50;99.90;;;;;;5114708;28;20031;-74
2023/07/06 01:44:08;;;;;;;3.00;1.48;;;13.50;99.90;;;;;;5114613;28;20030;-74
2023/07/06 01:46:34;;;;;;;3.72;1.50;;;13.40;99.90;;;;;;5114617;28;20024;-74
2023/07/06 01:48:59;;;;;;;3.28;1.67;;;13.40;99.90;;;;;;5114865;28;20028;-74
2023/07/06 01:51:34;;;;;;;3.10;1.60;;;13.40;99.90;;;;;;5114470;28;20389;-74
2023/07/06 01:54:06;;;;;;;3.83;1.48;;;13.40;99.90;;;;;;5114686;28;20023;-74
2023/07/06 01:56:48;;;;;;;2.38;1.33;;;13.30;99.90;;;;;;5114516;28;20012;-74
2023/07/06 01:59:17;;;;;;;2.78;1.20;;;13.40;99.90;;;;;;5114944;28;20412;-74
2023/07/06 02:02:00;;;;;;;3.60;1.58;;;13.30;99.90;;;;;;5114818;28;20106;-74
2023/07/06 02:04:32;;;;;;;3.53;2.20;;;13.30;99.90;;;;;;5114259;28;20020;-74
2023/07/06 02:07:01;;;;;;;4.70;2.00;;;13.10;99.90;;;;;;5114748;28;20110;-74
2023/07/06 02:09:27;;;;;;;6.57;2.70;;;13.00;99.90;;;;;;5114191;28;20103;-74
2023/07/06 02:11:53;;;;;;;5.57;2.50;;;12.90;99.90;;;;;;5114151;28;20055;-74
2023/07/06 02:14:20;;;;;;;4.03;2.28;;;12.80;99.90;;;;;;5114038;28;20028;-74
2023/07/06 02:16:46;;;;;;;4.93;1.88;;;12.70;99.90;;;;;;5095760;28;20035;-74
2023/07/06 02:19:12;;;;;;;4.60;2.05;;;12.70;99.90;;;;;;5114413;28;20358;-74
2023/07/06 02:21:38;;;;;;;5.22;2.17;;;12.70;99.90;;;;;;5095865;28;20035;-74
2023/07/06 02:24:04;;;;;;;3.75;1.98;;;12.80;99.90;;;;;;5113037;28;20024;-74
2023/07/06 02:26:30;;;;;;;3.58;2.00;;;12.80;99.90;;;;;;5113947;28;20069;-74
2023/07/06 02:28:55;;;;;;;2.88;1.70;;;12.90;99.90;;;;;;5096521;28;20035;-74
2023/07/06 02:31:21;;;;;;;3.53;1.83;;;12.90;99.90;;;;;;5113770;28;20074;-75
2023/07/06 02:33:47;;;;;;;4.45;2.05;;;12.80;99.90;;;;;;5113842;28;20028;-74
2023/07/06 02:36:12;;;;;;;4.10;2.45;;;12.70;99.90;;;;;;5113819;28;20049;-75
2023/07/06 02:38:38;;;;;;;4.57;2.17;;;12.70;99.90;;;;;;5114300;28;20028;-74
2023/07/06 02:41:04;;;;;;;3.13;1.75;;;12.60;99.90;;;;;;5078827;28;20073;-75
2023/07/06 02:43:30;;;;;;;6.22;2.28;;;12.60;99.90;;;;;;5114030;28;20036;-74
2023/07/06 02:45:56;;;;;;;4.07;2.20;;;12.50;99.90;;;;;;5113726;28;20024;-75
2023/07/06 02:48:24;;;;;;;5.00;1.77;;;12.50;99.90;;;;;;5113697;28;20034;-74
2023/07/06 02:50:50;;;;;;;2.83;1.73;;;12.40;99.90;;;;;;5095612;28;20076;-75
2023/07/06 02:53:17;;;;;;;4.03;1.85;;;12.40;99.90;;;;;;5113589;28;20442;-74
2023/07/06 02:55:46;;;;;;;4.43;2.13;;;12.40;99.90;;;;;;5113601;28;20509;-74
2023/07/06 02:58:12;;;;;;;3.58;2.17;;;12.50;99.90;;;;;;5113537;28;20030;-74
2023/07/06 03:00:37;;;;;;;4.28;2.25;;;12.50;99.90;;;;;;5113654;28;20481;-74
2023/07/06 03:03:03;;;;;;;3.53;2.05;;;12.50;99.90;;;;;;5113533;28;20097;-74
2023/07/06 03:05:30;;;;;;;3.80;2.40;;;12.50;99.90;;;;;;5113582;28;20065;-74
2023/07/06 03:07:55;;;;;;;3.95;2.50;;;12.40;99.90;;;;;;5113937;28;20377;-74
2023/07/06 03:10:23;;;;;;;4.75;2.20;;;12.40;99.90;;;;;;5114142;28;20027;-74
2023/07/06 03:12:49;;;;;;;4.75;2.67;;;12.40;99.90;;;;;;5095473;28;20028;-74
2023/07/06 03:15:15;;;;;;;3.70;1.90;;;12.40;99.90;;;;;;5113456;28;20028;-74
2023/07/06 03:17:48;;;;;;;3.33;2.10;;;12.50;99.90;;;;;;5112328;28;20024;-73
2023/07/06 03:20:14;;;;;;;2.95;1.80;;;12.50;99.90;;;;;;5112790;28;20466;-73
2023/07/06 03:22:41;;;;;;;3.72;2.05;;;12.50;99.90;;;;;;5113595;28;20024;-74
2023/07/06 03:25:09;;;;;;;4.15;2.00;;;12.50;99.90;;;;;;5095782;28;20034;-74
2023/07/06 03:27:36;;;;;;;3.72;2.00;;;12.40;99.90;;;;;;5095740;28;20112;-74
2023/07/06 03:30:05;;;;;;;3.47;1.90;;;12.30;99.90;;;;;;5095171;28;20028;-74
2023/07/06 03:32:36;;;;;;;3.60;2.17;;;12.20;99.90;;;;;;5113393;28;20438;-73
2023/07/06 03:35:03;;;;;;;3.08;2.00;;;12.20;99.90;;;;;;5097004;28;20107;-73
2023/07/06 03:37:29;;;;;;;2.90;1.80;;;12.10;99.90;;;;;;5116980;27;20106;-74
2023/07/06 03:39:55;;;;;;;2.95;1.80;;;12.10;99.90;;;;;;5117087;28;20055;-74
2023/07/06 03:42:21;;;;;;;5.95;1.92;;;12.10;99.90;;;;;;5117779;28;20386;-74
2023/07/06 03:44:46;;;;;;;4.13;1.42;;;12.20;99.90;;;;;;5117376;28;20028;-74
2023/07/06 03:47:13;;;;;;;4.38;1.70;;;12.20;99.90;;;;;;5116943;28;20484;-74
2023/07/06 03:49:39;;;;;;;3.85;1.60;;;12.30;99.90;;;;;;5115623;28;20027;-73
2023/07/06 03:52:06;;;;;;;3.42;1.75;;;12.40;99.90;;;;;;5116788;28;20061;-73
2023/07/06 03:54:32;;;;;;;3.85;2.25;;;12.40;99.90;;;;;;5116853;28;20031;-74
2023/07/06 03:56:57;;;;;;;2.70;1.70;;;12.50;99.90;;;;;;5116675;28;20036;-74
2023/07/06 03:59:23;;;;;;;4.70;2.22;;;12.50;99.90;;;;;;5116650;28;20020;-74
2023/07/06 04:01:49;;;;;;;5.40;2.13;;;12.50;99.90;;;;;;5116591;28;20473;-74
2023/07/06 04:04:18;;;;;;;3.70;2.08;;;12.50;99.90;;;;;;5115960;28;20024;-73
2023/07/06 04:06:43;;;;;;;3.45;2.20;;;12.60;99.90;;;;;;5114463;28;20451;-73
2023/07/06 04:09:09;;;;;;;3.40;2.30;;;12.60;99.90;;;;;;5114397;28;20102;-73
2023/07/06 04:11:36;;;;;;;4.00;2.47;;;12.60;99.90;;;;;;5114377;28;20396;-73
2023/07/06 04:14:03;;;;;;;4.65;2.58;;;12.60;99.90;;;;;;5114275;28;20098;-73
2023/07/06 04:16:29;;;;;;;3.75;2.08;;;12.60;99.90;;;;;;5112906;28;20031;-73
2023/07/06 04:18:55;;;;;;;4.38;2.22;;;12.70;99.90;;;;;;5112945;28;20047;-72
2023/07/06 04:21:22;;;;;;;3.88;2.33;;;12.60;99.90;;;;;;5115447;28;20035;-73
2023/07/06 04:23:48;;;;;;;3.95;2.28;;;12.70;99.90;;;;;;5116325;27;20026;-74
2023/07/06 04:26:19;;;;;;;3.25;2.25;;;12.70;99.90;;;;;;5116415;28;20011;-74
2023/07/06 04:28:47;;;;;;;4.70;2.10;;;12.60;99.90;;;;;;5116508;27;20418;-74
2023/07/06 04:31:15;;;;;;;3.30;2.10;;;12.60;99.90;;;;;;5116114;28;20057;-74
2023/07/06 04:33:41;;;;;;;5.13;1.90;;;12.60;99.90;;;;;;5116350;28;20023;-74
2023/07/06 04:36:09;;;;;;;3.63;2.42;;;12.70;99.90;;;;;;5116053;28;20024;-74
2023/07/06 04:38:35;;;;;;;4.35;2.40;;;12.70;99.90;;;;;;5115884;28;20110;-74
2023/07/06 04:41:01;;;;;;;3.47;1.98;;;12.70;99.90;;;;;;5115304;28;20095;-74
2023/07/06 04:43:27;;;;;;;4.03;2.25;;;12.60;99.90;;;;;;5114845;28;20481;-73
2023/07/06 04:45:57;;;;;;;3.75;2.28;;;12.60;99.90;;;;;;5115762;28;20107;-74
2023/07/06 04:48:26;;;;;;;4.00;2.28;;;12.70;99.90;;;;;;5114971;28;20064;-74
2023/07/06 04:50:53;;;;;;;3.20;2.15;;;12.80;99.90;;;;;;5114548;28;20027;-74
2023/07/06 04:53:20;;;;;;;3.72;2.03;;;12.80;99.90;;;;;;5100357;28;20032;-73
2023/07/06 04:55:46;;;;;;;3.22;1.90;;;12.90;99.90;;;;;;5094921;28;20103;-73
2023/07/06 04:58:13;;;;;;;5.47;2.83;;;12.90;99.90;;;;;;5095411;28;20115;-74
2023/07/06 05:00:39;;;;;;;4.00;2.75;;;13.00;99.90;;;;;;5077031;28;20024;-74
2023/07/06 05:03:07;;;;;;;3.95;2.53;;;13.00;99.90;;;;;;5095042;28;20103;-74
2023/07/06 05:05:40;;;;;;;4.25;2.38;;;13.00;99.90;;;;;;5094986;28;20393;-75
2023/07/06 05:08:14;;;;;;;4.78;2.67;;;13.10;99.90;;;;;;5095293;28;20045;-75
2023/07/06 05:10:46;;;;;;;5.65;3.00;;;13.10;99.90;;;;;;5095085;28;20073;-74
2023/07/06 05:13:12;;;;;;;7.40;3.30;;;13.10;99.90;;;;;;5095646;28;20509;-74
2023/07/06 05:15:38;;;;;;;6.03;3.15;;;13.20;99.90;;;;;;5094889;28;20028;-75
2023/07/06 05:18:04;;;;;;;5.80;2.92;;;13.20;99.90;;;;;;5094765;28;20409;-74
2023/07/06 05:20:31;;;;;;;4.78;2.85;;;13.30;99.90;;;;;;5094855;28;20095;-74
2023/07/06 05:22:57;;;;;;;5.05;3.05;;;13.30;99.90;;;;;;5094319;28;20025;-73
2023/07/06 05:25:23;;;;;;;4.80;2.83;;;13.40;99.90;;;;;;5104250;28;20028;-73
2023/07/06 05:27:49;;;;;;;7.78;5.47;;;13.40;99.90;;;;;;5114786;28;20020;-74
2023/07/06 05:30:16;;;;;;;7.65;4.70;;;13.50;99.90;;;;;;5115252;28;20120;-75
2023/07/06 05:32:41;;;;;;;7.20;4.07;;;13.50;99.90;;;;;;5114957;28;20431;-74
2023/07/06 05:35:08;;;;;;;4.82;3.20;;;13.60;99.90;;;;;;5114626;28;20034;-74
2023/07/06 05:37:34;;;;;;;5.57;3.15;;;13.60;99.90;;;;;;5096380;28;20063;-74
2023/07/06 05:40:03;;;;;;;6.15;3.88;;;13.60;99.90;;;;;;5114968;28;20055;-74
2023/07/06 05:42:30;;;;;;;6.25;3.42;;;13.70;99.90;;;;;;5114635;28;20034;-74
2023/07/06 05:44:56;;;;;;;4.15;2.70;;;13.70;99.90;;;;;;5114647;28;20042;-74
2023/07/06 05:47:21;;;;;;;4.32;2.38;;;13.70;99.90;;;;;;5114616;28;20487;-75
2023/07/06 05:49:47;;;;;;;6.80;2.92;;;13.70;99.90;;;;;;5114513;28;20023;-74
2023/07/06 05:52:13;;;;;;;8.10;3.55;;;13.70;99.90;;;;;;5114419;28;20485;-74
2023/07/06 05:54:39;;;;;;;6.25;3.50;;;13.70;99.90;;;;;;5114762;28;20422;-73
2023/07/06 05:57:06;;;;;;;4.72;2.88;;;13.80;99.90;;;;;;5096615;28;20034;-74
2023/07/06 05:59:32;;;;;;;5.18;2.83;;;13.80;99.90;;;;;;5113916;28;20028;-72
2023/07/06 06:01:59;;;;;;;5.28;3.05;;;13.90;99.90;;;;;;5114304;28;20023;-73
2023/07/06 06:04:28;;;;;;;5.90;3.47;;;14.00;99.90;;;;;;5114429;28;20047;-73
2023/07/06 06:06:56;;;;;;;7.30;3.75;;;14.00;99.90;;;;;;5114564;28;20534;-74
2023/07/06 06:09:24;;;;;;;5.30;3.25;;;14.00;99.90;;;;;;5114509;28;20028;-73
2023/07/06 06:11:50;;;;;;;5.22;3.05;;;14.00;99.90;;;;;;5114475;28;20068;-74
2023/07/06 06:14:17;;;;;;;6.15;3.78;;;14.10;99.90;;;;;;5113957;28;20020;-73
2023/07/06 06:16:42;;;;;;;5.00;3.15;;;14.10;99.90;;;;;;5114096;28;20107;-73
2023/07/06 06:19:09;;;;;;;5.82;3.28;;;14.10;99.90;;;;;;5114102;28;20569;-74
2023/07/06 06:21:35;;;;;;;6.05;3.35;;;14.20;99.90;;;;;;5114044;28;20099;-74
2023/07/06 06:24:02;;;;;;;5.75;2.70;;;14.20;99.90;;;;;;5113946;28;20431;-73
2023/07/06 06:26:32;;;;;;;5.45;3.25;;;14.30;99.90;;;;;;5114078;28;20457;-73
2023/07/06 06:28:57;;;;;;;6.00;3.67;;;14.40;99.90;;;;;;5095635;28;20066;-74
2023/07/06 06:31:24;;;;;;;7.97;3.30;;;14.40;99.90;;;;;;5113909;28;20069;-74
2023/07/06 06:33:50;;;;;;;8.90;3.67;;;14.50;99.90;;;;;;5113741;28;20027;-74
2023/07/06 06:36:17;;;;;;;16.98;6.70;;;14.50;99.90;;;;;;5095626;28;20034;-74
2023/07/06 06:38:43;;;;;;;17.00;6.60;;;14.60;99.90;;;;;;5114013;28;20028;-74
2023/07/06 06:41:13;;;;;;;18.75;9.13;;;14.60;99.90;;;;;;5095807;28;20026;-74
2023/07/06 06:43:40;;;;;;;46.42;14.98;;;14.70;99.90;;;;;;5113694;28;20016;-74
2023/07/06 06:46:10;;;;;;;23.55;9.85;;;14.70;99.90;;;;;;5095510;28;20068;-74
2023/07/06 06:48:36;;;;;;;25.83;10.20;;;14.80;99.90;;;;;;5096138;28;20033;-74
2023/07/06 06:51:04;;;;;;;27.70;12.50;;;14.90;99.90;;;;;;5095440;28;20043;-74
2023/07/06 06:53:30;;;;;;;38.50;12.35;;;15.00;99.90;;;;;;5113585;28;20032;-74
2023/07/06 06:55:57;;;;;;;23.00;9.57;;;15.00;99.90;;;;;;5095505;28;20106;-74
2023/07/06 06:58:23;;;;;;;30.98;12.52;;;15.10;99.90;;;;;;5113545;28;20062;-74
2023/07/06 07:00:57;;;;;;;26.15;9.68;;;15.10;99.90;;;;;;5113601;28;20016;-74
2023/07/06 07:03:23;;;;;;;20.20;8.27;;;15.10;99.90;;;;;;5113542;28;20024;-74
2023/07/06 07:06:01;;;;;;;14.38;6.47;;;15.20;99.90;;;;;;5114160;28;20389;-74
2023/07/06 07:08:27;;;;;;;13.20;6.10;;;15.20;99.90;;;;;;5113910;28;20102;-74
2023/07/06 07:10:57;;;;;;;9.45;5.40;;;15.30;99.90;;;;;;5115773;28;20023;-74
2023/07/06 07:13:25;;;;;;;9.23;5.22;;;15.40;99.90;;;;;;5117578;28;20057;-74
2023/07/06 07:15:51;;;;;;;13.05;6.07;;;15.50;99.90;;;;;;5099420;28;20115;-74
2023/07/06 07:18:18;;;;;;;10.68;5.50;;;15.50;99.90;;;;;;5098788;28;20024;-74
2023/07/06 07:20:43;;;;;;;10.40;5.70;;;15.60;99.90;;;;;;5117432;28;20098;-74
2023/07/06 07:23:10;;;;;;;11.57;6.03;;;15.70;99.90;;;;;;5099221;28;20158;-75
2023/07/06 07:25:38;;;;;;;12.02;5.50;;;15.80;99.90;;;;;;5099069;28;20024;-75
2023/07/06 07:28:05;;;;;;;12.05;5.53;;;15.90;99.90;;;;;;5117621;28;20035;-75
2023/07/06 07:30:31;;;;;;;10.10;6.07;;;16.00;99.90;;;;;;5099282;28;20030;-75
2023/07/06 07:32:57;;;;;;;12.70;5.78;;;16.00;99.90;;;;;;5117245;28;20028;-74
2023/07/06 07:35:23;;;;;;;10.52;5.38;;;16.10;99.90;;;;;;5117203;28;20110;-74
2023/07/06 07:37:50;;;;;;;8.15;4.68;;;16.20;99.90;;;;;;5117442;28;20081;-74
2023/07/06 07:40:18;;;;;;;9.82;5.10;;;16.30;99.90;;;;;;5117196;28;20397;-74
2023/07/06 07:42:46;;;;;;;8.10;4.97;;;16.40;99.90;;;;;;5117007;28;20024;-74
2023/07/06 07:45:13;;;;;;;8.70;5.03;;;16.50;99.90;;;;;;5117028;28;20016;-74
2023/07/06 07:47:39;;;;;;;10.43;4.80;;;16.60;99.90;;;;;;5116994;28;20409;-74
2023/07/06 07:50:06;;;;;;;9.43;4.65;;;16.80;99.90;;;;;;5099141;28;20023;-74
2023/07/06 07:52:31;;;;;;;9.13;4.40;;;16.90;99.90;;;;;;5116814;28;20027;-74
2023/07/06 07:54:57;;;;;;;8.63;4.88;;;17.10;99.90;;;;;;5116872;28;20028;-74
2023/07/06 07:57:23;;;;;;;7.75;4.47;;;17.10;99.90;;;;;;5098879;28;20023;-74
2023/07/06 07:59:48;;;;;;;9.30;4.35;;;17.10;99.90;;;;;;5116682;28;20060;-74
2023/07/06 08:02:15;;;;;;;6.20;3.95;;;17.10;99.90;;;;;;5116866;28;20032;-74
2023/07/06 08:04:41;;;;;;;8.23;4.53;;;17.20;99.90;;;;;;5116698;28;20034;-74
2023/07/06 08:07:07;;;;;;;7.25;4.38;;;17.30;99.90;;;;;;5116612;28;20173;-74
2023/07/06 08:09:32;;;;;;;10.60;4.70;;;17.30;99.90;;;;;;5116509;28;20497;-74
2023/07/06 08:11:58;;;;;;;8.07;4.75;;;17.30;99.90;;;;;;5098496;28;20111;-74
2023/07/06 08:14:43;;;;;;;11.25;5.20;;;17.20;99.90;;;;;;5116362;28;20370;-74
2023/07/06 08:17:10;;;;;;;6.97;4.47;;;17.10;99.90;;;;;;5116288;28;20023;-74
2023/07/06 08:19:36;;;;;;;8.73;4.90;;;17.10;99.90;;;;;;5097987;28;20500;-74
2023/07/06 08:22:03;;;;;;;8.95;5.03;;;17.20;99.90;;;;;;5114847;28;20019;-74
2023/07/06 08:24:29;;;;;;;7.35;4.45;;;17.30;99.90;;;;;;5116194;28;20030;-74
2023/07/06 08:26:55;;;;;;;7.32;4.20;;;17.40;99.90;;;;;;5116452;28;20059;-74
2023/07/06 08:29:22;;;;;;;7.47;4.20;;;17.50;99.90;;;;;;5098096;28;20123;-74
2023/07/06 08:31:49;;;;;;;6.20;4.00;;;17.70;99.90;;;;;;5116106;28;20107;-75
2023/07/06 08:34:16;;;;;;;6.85;4.15;;;17.90;99.90;;;;;;5115960;28;20489;-75
2023/07/06 08:36:43;;;;;;;6.57;3.55;;;18.00;99.90;;;;;;5116266;28;20519;-75
2023/07/06 08:39:10;;;;;;;6.00;3.60;;;18.00;99.90;;;;;;5115920;28;20429;-75
2023/07/06 08:41:39;;;;;;;6.25;3.38;;;18.00;99.90;;;;;;5098167;28;20108;-75
2023/07/06 08:44:09;;;;;;;6.90;3.58;;;18.00;99.90;;;;;;5115782;28;20015;-74
2023/07/06 08:46:38;;;;;;;4.47;2.90;;;17.90;99.90;;;;;;5116342;28;20015;-74
2023/07/06 08:49:27;;;;;;;5.97;2.97;;;17.90;99.90;;;;;;5097505;28;20031;-74
2023/07/06 08:51:53;;;;;;;6.13;2.97;;;17.90;99.90;;;;;;5116051;28;20035;-74
2023/07/06 08:54:22;;;;;;;5.18;3.15;;;17.90;99.90;;;;;;5115554;28;20028;-74
2023/07/06 08:56:49;;;;;;;7.28;3.67;;;17.90;99.90;;;;;;5097258;28;20020;-75
2023/07/06 08:59:51;;;;;;;8.05;3.78;;;18.00;99.90;;;;;;5115850;28;20111;-75
2023/07/06 09:02:21;;;;;;;5.28;3.15;;;18.10;99.90;;;;;;4996963;28;20026;-75
2023/07/06 09:04:50;;;;;;;5.13;3.42;;;18.40;99.90;;;;;;5098293;28;20469;-77
2023/07/06 09:07:17;;;;;;;6.15;3.47;;;18.60;99.90;;;;;;5115297;28;20427;-75
2023/07/06 09:09:45;;;;;;;6.30;4.45;;;18.80;99.90;;;;;;5097162;28;20028;-76
2023/07/06 09:12:32;;;;;;;14.65;7.90;;;19.00;99.90;;;;;;5115628;28;20024;-73
2023/07/06 09:14:59;;;;;;;28.48;17.45;;;19.20;99.90;;;;;;5115288;28;20481;-74
2023/07/06 09:17:26;;;;;;;5.97;3.30;;;19.40;99.90;;;;;;5115087;28;20068;-74
2023/07/06 09:19:53;;;;;;;7.07;2.88;;;19.60;99.90;;;;;;5115110;28;20024;-74
2023/07/06 09:22:22;;;;;;;7.50;3.42;;;19.60;99.90;;;;;;5115027;28;20109;-74
2023/07/06 09:24:49;;;;;;;5.43;3.22;;;19.70;99.90;;;;;;5114952;28;20077;-74
2023/07/06 09:27:23;;;;;;;3.83;2.60;;;19.70;99.90;;;;;;5115239;28;20028;-74
2023/07/06 09:30:06;;;;;;;6.18;3.25;;;19.80;99.90;;;;;;5115212;28;20034;-74
2023/07/06 09:32:34;;;;;;;4.43;3.05;;;19.90;99.90;;;;;;5096839;28;20042;-72
2023/07/06 09:35:13;;;;;;;4.82;3.03;;;20.00;99.90;;;;;;5097110;28;20468;-70
2023/07/06 09:37:46;;;;;;;6.47;3.45;;;20.00;99.90;;;;;;5115025;28;20035;-69
2023/07/06 09:40:14;;;;;;;5.68;3.00;;;20.00;99.90;;;;;;5114728;28;20034;-69
2023/07/06 09:42:41;;;;;;;5.57;3.28;;;20.00;99.90;;;;;;5114924;28;20019;-69
2023/07/06 09:45:24;;;;;;;4.10;2.53;;;20.20;99.90;;;;;;5097011;28;20069;-69
2023/07/06 09:48:17;;;;;;;5.22;2.83;;;20.30;99.90;;;;;;5114989;28;20366;-69
2023/07/06 09:50:48;;;;;;;5.18;3.25;;;20.40;99.90;;;;;;5101584;28;20445;-69
2023/07/06 09:53:21;;;;;;;;;;;20.40;99.90;;;;;;5115035;28;20023;-69
2023/07/06 09:55:47;;;;;;;5.75;3.08;;;20.30;99.90;;;;;;5114492;28;20327;-69
2023/07/06 09:58:24;;;;;;;5.90;3.28;;;20.30;99.90;;;;;;5114361;28;20035;-69
2023/07/06 10:00:59;;;;;;;5.07;3.38;;;20.30;99.90;;;;;;5114558;28;20026;-69
2023/07/06 10:03:40;;;;;;;6.05;3.15;;;20.40;99.90;;;;;;5114326;28;20107;-69
2023/07/06 10:06:12;;;;;;;5.65;2.97;;;20.40;99.90;;;;;;5114622;28;20024;-69
2023/07/06 10:08:44;;;;;;;4.57;3.03;;;20.50;99.90;;;;;;5114118;28;20446;-69
2023/07/06 10:11:25;;;;;;;5.35;3.15;;;20.40;99.90;;;;;;5114146;28;20024;-69
2023/07/06 10:14:02;;;;;;;6.35;3.20;;;20.40;99.90;;;;;;5114123;28;20019;-70
2023/07/06 10:17:08;;;;;;;5.07;3.25;;;20.30;99.90;;;;;;5114056;28;20077;-69
2023/07/06 10:19:52;;;;;;;8.43;3.70;;;20.30;99.90;;;;;;5063214;28;20040;-69
2023/07/06 10:22:26;;;;;;;5.68;3.40;;;20.40;99.90;;;;;;5114895;28;20055;-70
2023/07/06 10:24:56;;;;;;;6.63;3.70;;;20.50;99.90;;;;;;5114819;28;20016;-69
2023/07/06 10:27:30;;;;;;;5.20;3.22;;;20.70;99.90;;;;;;5114241;28;20066;-70
2023/07/06 10:30:05;;;;;;;5.75;3.92;;;20.90;99.90;;;;;;5114198;28;20036;-70
2023/07/06 10:32:41;;;;;;;5.63;3.40;;;21.10;99.90;;;;;;5114339;28;20028;-70
2023/07/06 10:35:22;;;;;;;5.50;3.30;;;21.10;99.90;;;;;;5114153;28;20385;-70
2023/07/06 10:37:49;;;;;;;6.50;3.20;;;21.20;99.90;;;;;;5113892;28;20023;-70
2023/07/06 10:40:21;;;;;;;4.38;2.88;;;21.20;99.90;;;;;;5109537;28;20024;-71
2023/07/06 10:42:52;;;;;;;5.95;3.00;;;21.40;99.90;;;;;;5106632;28;20023;-70
2023/07/06 10:45:42;;;;;;;;;;;21.50;99.90;;;;;;5093483;28;20013;-70
2023/07/06 10:48:34;;;;;;;6.95;3.10;;;21.60;99.90;;;;;;5085236;28;20315;-71
2023/07/06 10:51:22;;;;;;;5.80;3.00;;;21.70;99.90;;;;;;5114027;28;20035;-69
2023/07/06 10:54:02;;;;;;;6.20;2.60;;;21.80;99.90;;;;;;5114487;28;20377;-70
2023/07/06 10:56:30;;;;;;;4.53;2.70;;;22.10;99.90;;;;;;5114576;28;20024;-70
2023/07/06 10:59:00;;;;;;;9.65;3.10;;;22.20;99.90;;;;;;5114272;28;20030;-70
2023/07/06 11:01:39;;;;;;;4.43;2.53;;;22.40;99.90;;;;;;5113685;28;20011;-70
2023/07/06 11:04:41;;;;;;;6.55;3.13;;;22.50;99.90;;;;;;5113550;28;20043;-69
2023/07/06 11:07:09;;;;;;;5.20;3.10;;;22.50;99.90;;;;;;5113674;28;20023;-70
2023/07/06 11:10:12;;;;;;;5.50;3.33;;;22.50;99.90;;;;;;5112736;28;20028;-70
2023/07/06 11:12:51;;;;;;;5.60;3.35;;;22.60;99.90;;;;;;5113777;28;20023;-70
2023/07/06 11:15:17;;;;;;;6.38;3.20;;;22.80;99.90;;;;;;5113369;28;20020;-70
2023/07/06 11:17:48;;;;;;;4.47;3.13;;;23.00;99.90;;;;;;5113328;28;20034;-70
2023/07/06 11:20:27;;;;;;;6.20;3.05;;;23.10;99.90;;;;;;5095077;28;20030;-70
2023/07/06 11:22:59;;;;;;;4.88;2.58;;;23.20;99.40;;;;;;5113331;28;20039;-70
2023/07/06 11:25:29;;;;;;;5.53;3.17;;;23.40;97.30;;;;;;5113283;28;20370;-70
2023/07/06 11:28:09;;;;;;;4.30;2.77;;;23.60;99.90;;;;;;5095571;28;20019;-70
2023/07/06 11:31:01;;;;;;;5.38;2.97;;;23.90;99.40;;;;;;5113388;28;20451;-70
2023/07/06 11:33:49;;;;;;;4.07;2.85;;;23.90;98.50;;;;;;5095607;28;20036;-70
2023/07/06 11:36:23;;;;;;;4.43;2.50;;;23.90;97.20;;;;;;5112947;28;20491;-70
2023/07/06 11:39:05;;;;;;;4.10;2.58;;;23.80;97.50;;;;;;5113325;28;20031;-70
2023/07/06 11:41:53;;;;;;;6.32;2.83;;;23.80;97.70;;;;;;5113602;28;20011;-72
2023/07/06 11:44:32;;;;;;;5.82;2.80;;;23.90;94.90;;;;;;5113268;28;20104;-70
2023/07/06 11:47:28;;;;;;;5.20;2.72;;;23.90;94.90;;;;;;5113585;28;20022;-69
2023/07/06 11:49:59;;;;;;;4.50;2.95;;;23.90;95.80;;;;;;5113383;28;20038;-70
2023/07/06 11:52:36;;;;;;;7.32;3.20;;;23.90;92.80;;;;;;5113265;28;20549;-70
2023/07/06 11:55:06;;;;;;;5.38;2.40;;;23.90;95.30;;;;;;5113381;28;20031;-69
2023/07/06 11:57:45;;;;;;;;;;;23.90;94.50;;;;;;5103473;27;20024;-70
2023/07/06 12:03:01;;;;;;;4.15;2.83;;;24.00;92.20;;;;;;5137225;27;20034;-70
2023/07/06 12:05:34;;;;;;;4.15;2.83;;;23.90;91.50;;;;;;5137360;27;20095;-69
2023/07/06 12:08:14;;;;;;;3.35;2.30;;;23.90;91.80;;;;;;5134575;27;20027;-70
2023/07/06 12:11:02;;;;;;;4.18;2.63;;;23.90;91.30;;;;;;5098386;28;20069;-69
2023/07/06 12:13:32;;;;;;;4.10;2.60;;;23.90;90.80;;;;;;5117050;28;20050;-70
2023/07/06 12:16:13;;;;;;;3.85;2.55;;;23.90;90.40;;;;;;5116309;28;20024;-70
2023/07/06 12:18:40;;;;;;;4.85;2.90;;;23.90;88.90;;;;;;5116940;28;20028;-70
2023/07/06 12:21:26;;;;;;;4.78;2.60;;;23.90;89.40;;;;;;5116367;28;20500;-70
2023/07/06 12:23:52;;;;;;;5.15;3.20;;;23.90;90.30;;;;;;5115232;28;20081;-70
2023/07/06 12:26:18;;;;;;;4.85;3.33;;;24.30;88.00;;;;;;5116166;28;20032;-70
2023/07/06 12:28:47;;;;;;;4.97;3.00;;;24.60;84.40;;;;;;5097831;28;20032;-70
2023/07/06 12:31:15;;;;;;;4.70;3.10;;;24.70;84.70;;;;;;5115966;28;20119;-70
2023/07/06 12:33:43;;;;;;;5.35;3.33;;;24.90;80.40;;;;;;5098127;28;20024;-70
2023/07/06 12:36:13;;;;;;;5.47;3.35;;;24.90;74.10;;;;;;5097897;28;20038;-70
2023/07/06 12:38:39;;;;;;;5.03;3.70;;;25.00;78.00;;;;;;5116288;28;20016;-70
2023/07/06 12:41:19;;;;;;;4.72;3.13;;;25.10;77.90;;;;;;5115903;28;20270;-70
2023/07/06 12:43:45;;;;;;;5.10;3.53;;;25.20;72.70;;;;;;5115891;28;20045;-70
2023/07/06 12:46:12;;;;;;;6.28;3.67;;;25.10;73.30;;;;;;5115886;28;20031;-70
2023/07/06 12:48:46;;;;;;;4.85;3.22;;;24.90;72.70;;;;;;5115731;28;20030;-70
2023/07/06 12:51:12;;;;;;;4.78;3.10;;;24.80;75.40;;;;;;5115811;28;20023;-70
2023/07/06 12:53:38;;;;;;;4.43;3.05;;;24.90;76.50;;;;;;5115728;28;20027;-70
2023/07/06 12:56:15;;;;;;;4.85;3.10;;;24.90;73.50;;;;;;5115647;28;20050;-70
2023/07/06 12:58:57;;;;;;;4.97;3.33;;;24.90;79.30;;;;;;5115676;28;20030;-70
2023/07/06 13:01:34;;;;;;;6.15;2.42;;;25.00;76.50;;;;;;5115860;28;20035;-70
2023/07/06 13:04:07;;;;;;;5.32;3.15;;;25.10;77.80;;;;;;5115426;28;20104;-70